createdAt,value
2017-04-28T00:00:00.399Z,-7.47
2017-04-28T00:01:00.371Z,-7.38
2017-04-28T00:02:00.346Z,-7.31
2017-04-28T00:03:00.328Z,-7.46
2017-04-28T00:04:00.306Z,-7.37
2017-04-28T00:05:00.291Z,-7.31
2017-04-28T00:06:00.257Z,-7.29
2017-04-28T00:07:00.242Z,-7.34
2017-04-28T00:08:00.216Z,-7.29
2017-04-28T00:09:00.194Z,-7.39
2017-04-28T00:10:00.173Z,-7.27
2017-04-28T00:11:00.147Z,-7.37
2017-04-28T00:12:00.127Z,-7.29
2017-04-28T00:13:00.107Z,-7.32
2017-04-28T00:14:00.085Z,-7.28
2017-04-28T00:15:00.054Z,-7.45
2017-04-28T00:16:00.036Z,-7.34
2017-04-28T00:17:00.017Z,-7.24
2017-04-28T00:17:59.997Z,-7.2
2017-04-28T00:18:59.973Z,-7.14
2017-04-28T00:19:59.955Z,-7.18
2017-04-28T00:20:59.924Z,-7.2
2017-04-28T00:21:59.905Z,-7.23
2017-04-28T00:22:59.877Z,-7.23
2017-04-28T00:23:59.862Z,-7.23
2017-04-28T00:24:59.835Z,-7.13
2017-04-28T00:25:59.811Z,-7.07
2017-04-28T00:26:59.786Z,-7.17
2017-04-28T00:27:59.816Z,-7.23
2017-04-28T00:28:59.747Z,-7.21
2017-04-28T00:29:59.728Z,-7.34
2017-04-28T00:30:59.703Z,-7.5
2017-04-28T00:31:59.677Z,-7.6
2017-04-28T00:32:59.657Z,-7.49
2017-04-28T00:33:59.636Z,-7.45
2017-04-28T00:34:59.613Z,-7.45
2017-04-28T00:35:59.590Z,-7.49
2017-04-28T00:36:59.566Z,-7.42
2017-04-28T00:37:59.549Z,-7.46
2017-04-28T00:38:59.525Z,-7.34
2017-04-28T00:39:59.496Z,-7.23
2017-04-28T00:40:59.470Z,-7.29
2017-04-28T00:41:59.449Z,-7.31
2017-04-28T00:42:59.443Z,-7.34
2017-04-28T00:43:59.408Z,-7.21
2017-04-28T00:44:59.389Z,-7.32
2017-04-28T00:45:59.369Z,-7.29
2017-04-28T00:46:59.341Z,-7.34
2017-04-28T00:47:59.319Z,-7.32
2017-04-28T00:48:59.297Z,-7.29
2017-04-28T00:49:59.274Z,-7.31
2017-04-28T00:50:59.248Z,-7.27
2017-04-28T00:51:59.227Z,-7.24
2017-04-28T00:52:59.208Z,-7.23
2017-04-28T00:53:59.181Z,-7.13
2017-04-28T00:54:59.159Z,-7.05
2017-04-28T00:55:59.139Z,-6.96
2017-04-28T00:56:59.117Z,-6.98
2017-04-28T00:57:59.090Z,-7.05
2017-04-28T00:58:59.072Z,-7.27
2017-04-28T00:59:59.046Z,-7.35
2017-04-28T01:00:59.024Z,-7.47
2017-04-28T01:01:59.004Z,-7.6
2017-04-28T01:02:58.979Z,-7.71
2017-04-28T01:03:58.956Z,-7.77
2017-04-28T01:04:58.934Z,-7.8
2017-04-28T01:05:58.910Z,-7.68
2017-04-28T01:06:58.884Z,-7.76
2017-04-28T01:07:58.864Z,-7.85
2017-04-28T01:08:58.544Z,-7.76
2017-04-28T01:09:58.817Z,-7.71
2017-04-28T01:10:58.793Z,-7.82
2017-04-28T01:11:58.773Z,-7.77
2017-04-28T01:12:58.749Z,-7.73
2017-04-28T01:13:58.760Z,-7.84
2017-04-28T01:14:58.698Z,-7.89
2017-04-28T01:15:58.676Z,-7.91
2017-04-28T01:16:58.652Z,-7.98
2017-04-28T01:17:58.631Z,-8.04
2017-04-28T01:18:58.631Z,-7.94
2017-04-28T01:19:58.586Z,-7.92
2017-04-28T01:20:58.557Z,-7.89
2017-04-28T01:21:58.532Z,-7.87
2017-04-28T01:22:58.509Z,-7.88
2017-04-28T01:23:58.491Z,-7.88
2017-04-28T01:24:58.470Z,-7.74
2017-04-28T01:25:58.441Z,-7.66
2017-04-28T01:26:58.419Z,-7.6
2017-04-28T01:27:58.427Z,-7.52
2017-04-28T01:28:58.372Z,-7.42
2017-04-28T01:29:58.350Z,-7.35
2017-04-28T01:30:58.323Z,-7.37
2017-04-28T01:31:58.302Z,-7.18
2017-04-28T01:32:58.277Z,-7.2
2017-04-28T01:33:57.968Z,-7.23
2017-04-28T01:34:58.239Z,-7.17
2017-04-28T01:35:58.214Z,-7.21
2017-04-28T01:36:58.190Z,-7.2
2017-04-28T01:37:58.168Z,-7.24
2017-04-28T01:38:58.150Z,-7.23
2017-04-28T01:39:58.119Z,-7.2
2017-04-28T01:40:57.794Z,-7.2
2017-04-28T01:41:58.076Z,-7.2
2017-04-28T01:42:57.755Z,-7.32
2017-04-28T01:43:58.030Z,-7.6
2017-04-28T01:44:58.015Z,-7.64
2017-04-28T01:45:57.985Z,-7.7
2017-04-28T01:46:57.962Z,-7.68
2017-04-28T01:47:57.942Z,-7.74
2017-04-28T01:48:57.917Z,-7.7
2017-04-28T01:49:57.899Z,-7.59
2017-04-28T01:50:57.870Z,-7.62
2017-04-28T01:51:57.849Z,-7.59
2017-04-28T01:52:57.829Z,-7.67
2017-04-28T01:53:57.504Z,-7.7
2017-04-28T01:54:57.781Z,-7.62
2017-04-28T01:55:57.765Z,-7.76
2017-04-28T01:56:57.735Z,-7.76
2017-04-28T01:57:57.413Z,-7.66
2017-04-28T01:58:57.699Z,-7.52
2017-04-28T01:59:57.669Z,-7.55
2017-04-28T02:00:57.639Z,-7.52
2017-04-28T02:01:57.619Z,-7.46
2017-04-28T02:02:57.602Z,-7.62
2017-04-28T02:03:57.573Z,-7.57
2017-04-28T02:04:57.553Z,-7.64
2017-04-28T02:05:57.531Z,-7.49
2017-04-28T02:06:57.507Z,-7.5
2017-04-28T02:07:57.485Z,-7.37
2017-04-28T02:08:57.459Z,-7.24
2017-04-28T02:09:57.435Z,-7.2
2017-04-28T02:10:57.414Z,-7.34
2017-04-28T02:11:57.389Z,-7.34
2017-04-28T02:12:57.375Z,-7.24
2017-04-28T02:13:57.348Z,-7.24
2017-04-28T02:14:57.321Z,-7.18
2017-04-28T02:15:57.303Z,-7.13
2017-04-28T02:16:57.282Z,-7.17
2017-04-28T02:17:57.253Z,-7.34
2017-04-28T02:18:57.236Z,-7.46
2017-04-28T02:19:57.217Z,-7.57
2017-04-28T02:20:57.192Z,-7.59
2017-04-28T02:21:56.867Z,-7.5
2017-04-28T02:22:57.141Z,-7.57
2017-04-28T02:23:57.125Z,-7.62
2017-04-28T02:24:57.101Z,-7.64
2017-04-28T02:25:57.071Z,-7.64
2017-04-28T02:26:57.053Z,-7.57
2017-04-28T02:27:57.032Z,-7.56
2017-04-28T02:28:57.012Z,-7.64
2017-04-28T02:29:56.985Z,-7.73
2017-04-28T02:30:56.960Z,-7.68
2017-04-28T02:31:56.939Z,-7.7
2017-04-28T02:32:56.913Z,-7.76
2017-04-28T02:33:56.897Z,-7.7
2017-04-28T02:34:56.870Z,-7.71
2017-04-28T02:35:56.846Z,-7.82
2017-04-28T02:37:10.207Z,-7.68
2017-04-28T02:37:56.802Z,-7.77
2017-04-28T02:38:56.473Z,-7.84
2017-04-28T02:39:56.755Z,-7.91
2017-04-28T02:40:56.728Z,-7.94
2017-04-28T02:41:56.705Z,-7.95
2017-04-28T02:42:56.689Z,-7.94
2017-04-28T02:43:56.659Z,-7.87
2017-04-28T02:44:56.634Z,-7.96
2017-04-28T02:45:56.609Z,-7.8
2017-04-28T02:46:56.585Z,-7.85
2017-04-28T02:47:56.561Z,-7.91
2017-04-28T02:48:56.540Z,-7.95
2017-04-28T02:49:56.517Z,-8.03
2017-04-28T02:50:56.493Z,-8.07
2017-04-28T02:51:56.470Z,-8.07
2017-04-28T02:52:56.143Z,-8.07
2017-04-28T02:53:56.424Z,-8.07
2017-04-28T02:54:56.398Z,-8.1
2017-04-28T02:55:56.374Z,-8.06
2017-04-28T02:56:56.048Z,-8.04
2017-04-28T02:57:56.328Z,-7.95
2017-04-28T02:58:56.298Z,-7.84
2017-04-28T02:59:56.282Z,-7.76
2017-04-28T03:00:56.255Z,-7.8
2017-04-28T03:01:56.233Z,-7.91
2017-04-28T03:02:56.212Z,-7.94
2017-04-28T03:03:56.186Z,-8.06
2017-04-28T03:04:56.158Z,-8.08
2017-04-28T03:05:56.136Z,-8.06
2017-04-28T03:06:56.112Z,-7.99
2017-04-28T03:07:56.086Z,-8.04
2017-04-28T03:08:56.283Z,-8.04
2017-04-28T03:09:56.044Z,-8.04
2017-04-28T03:10:55.717Z,-7.98
2017-04-28T03:11:56.002Z,-7.95
2017-04-28T03:12:55.977Z,-7.99
2017-04-28T03:13:56.165Z,-7.96
2017-04-28T03:14:55.928Z,-7.89
2017-04-28T03:15:55.903Z,-7.78
2017-04-28T03:16:55.878Z,-7.87
2017-04-28T03:17:55.890Z,-7.89
2017-04-28T03:18:55.532Z,-7.99
2017-04-28T03:19:55.813Z,-7.92
2017-04-28T03:20:55.782Z,-7.85
2017-04-28T03:21:55.765Z,-7.76
2017-04-28T03:22:55.747Z,-7.68
2017-04-28T03:23:55.721Z,-7.66
2017-04-28T03:24:55.694Z,-7.56
2017-04-28T03:25:55.670Z,-7.55
2017-04-28T03:26:55.652Z,-7.66
2017-04-28T03:27:55.628Z,-7.59
2017-04-28T03:28:55.606Z,-7.71
2017-04-28T03:29:55.579Z,-7.57
2017-04-28T03:30:55.567Z,-7.56
2017-04-28T03:31:55.542Z,-7.56
2017-04-28T03:32:55.514Z,-7.56
2017-04-28T03:33:55.492Z,-7.59
2017-04-28T03:34:55.471Z,-7.6
2017-04-28T03:35:55.146Z,-7.6
2017-04-28T03:36:55.636Z,-7.68
2017-04-28T03:37:55.405Z,-7.66
2017-04-28T03:38:55.376Z,-7.64
2017-04-28T03:39:55.259Z,-7.68
2017-04-28T03:40:55.328Z,-7.82
2017-04-28T03:41:55.211Z,-7.85
2017-04-28T03:42:55.288Z,-7.71
2017-04-28T03:43:55.268Z,-7.77
2017-04-28T03:44:55.238Z,-7.7
2017-04-28T03:45:55.220Z,-7.68
2017-04-28T03:46:55.195Z,-7.68
2017-04-28T03:47:55.174Z,-7.67
2017-04-28T03:48:55.146Z,-7.67
2017-04-28T03:49:54.824Z,-7.68
2017-04-28T03:50:55.102Z,-7.62
2017-04-28T03:51:55.079Z,-7.6
2017-04-28T03:52:55.055Z,-7.53
2017-04-28T03:53:55.032Z,-7.57
2017-04-28T03:54:55.010Z,-7.6
2017-04-28T03:55:54.986Z,-7.39
2017-04-28T03:56:54.964Z,-7.46
2017-04-28T03:57:54.948Z,-7.46
2017-04-28T03:58:54.916Z,-7.5
2017-04-28T03:59:54.897Z,-7.55
2017-04-28T04:00:54.874Z,-7.62
2017-04-28T04:01:54.854Z,-7.55
2017-04-28T04:02:54.827Z,-7.59
2017-04-28T04:03:54.810Z,-7.64
2017-04-28T04:04:54.780Z,-7.6
2017-04-28T04:05:54.759Z,-7.64
2017-04-28T04:06:54.735Z,-7.64
2017-04-28T04:07:54.720Z,-7.67
2017-04-28T04:08:54.700Z,-7.77
2017-04-28T04:09:54.666Z,-7.67
2017-04-28T04:10:54.645Z,-7.71
2017-04-28T04:11:54.620Z,-7.7
2017-04-28T04:12:54.597Z,-7.84
2017-04-28T04:13:54.786Z,-7.96
2017-04-28T04:14:54.552Z,-8.07
2017-04-28T04:15:54.226Z,-8.06
2017-04-28T04:16:54.510Z,-7.99
2017-04-28T04:17:54.484Z,-8.04
2017-04-28T04:18:54.698Z,-8.1
2017-04-28T04:19:54.442Z,-8.06
2017-04-28T04:20:54.414Z,-8.08
2017-04-28T04:21:54.389Z,-8.1
2017-04-28T04:22:54.369Z,-8.07
2017-04-28T04:23:54.345Z,-8.25
2017-04-28T04:24:54.319Z,-8.08
2017-04-28T04:25:54.300Z,-8.07
2017-04-28T04:26:54.273Z,-8.1
2017-04-28T04:27:54.248Z,-8.11
2017-04-28T04:28:54.228Z,-8.16
2017-04-28T04:29:54.202Z,-8.17
2017-04-28T04:30:54.183Z,-8.1
2017-04-28T04:31:54.153Z,-8.07
2017-04-28T04:32:54.142Z,-8.08
2017-04-28T04:33:54.109Z,-7.99
2017-04-28T04:34:54.082Z,-8.03
2017-04-28T04:35:54.057Z,-8.06
2017-04-28T04:36:54.036Z,-8.06
2017-04-28T04:37:54.013Z,-7.94
2017-04-28T04:38:53.990Z,-7.96
2017-04-28T04:39:53.969Z,-7.87
2017-04-28T04:40:53.940Z,-7.88
2017-04-28T04:42:07.311Z,-7.89
2017-04-28T04:42:53.891Z,-7.76
2017-04-28T04:43:53.869Z,-7.85
2017-04-28T04:44:54.056Z,-7.91
2017-04-28T04:45:54.023Z,-7.89
2017-04-28T04:46:54.012Z,-7.89
2017-04-28T04:47:53.783Z,-7.8
2017-04-28T04:48:53.752Z,-7.82
2017-04-28T04:49:53.731Z,-7.74
2017-04-28T04:50:53.709Z,-7.84
2017-04-28T04:51:53.683Z,-7.89
2017-04-28T04:52:53.663Z,-7.91
2017-04-28T04:53:53.635Z,-7.84
2017-04-28T04:54:53.617Z,-7.76
2017-04-28T04:55:53.588Z,-7.67
2017-04-28T04:56:53.567Z,-7.82
2017-04-28T04:57:53.550Z,-7.84
2017-04-28T04:58:53.516Z,-7.85
2017-04-28T04:59:53.494Z,-7.84
2017-04-28T05:00:53.472Z,-7.78
2017-04-28T05:01:53.447Z,-7.74
2017-04-28T05:02:53.425Z,-7.82
2017-04-28T05:03:53.402Z,-7.84
2017-04-28T05:04:53.377Z,-7.7
2017-04-28T05:05:53.360Z,-7.59
2017-04-28T05:06:53.327Z,-7.56
2017-04-28T05:07:53.307Z,-7.57
2017-04-28T05:08:53.285Z,-7.67
2017-04-28T05:09:53.261Z,-7.84
2017-04-28T05:10:53.235Z,-7.74
2017-04-28T05:11:53.211Z,-7.57
2017-04-28T05:12:53.187Z,-7.6
2017-04-28T05:13:53.162Z,-7.49
2017-04-28T05:14:53.133Z,-7.28
2017-04-28T05:15:53.112Z,-7.21
2017-04-28T05:16:53.096Z,-7.38
2017-04-28T05:17:53.267Z,-7.24
2017-04-28T05:18:53.044Z,-7.37
2017-04-28T05:19:53.020Z,-7.18
2017-04-28T05:20:52.998Z,-7.34
2017-04-28T05:21:52.972Z,-7.45
2017-04-28T05:22:52.946Z,-7.52
2017-04-28T05:23:52.930Z,-7.41
2017-04-28T05:24:52.905Z,-7.5
2017-04-28T05:25:52.918Z,-7.46
2017-04-28T05:26:52.854Z,-7.45
2017-04-28T05:27:52.842Z,-7.47
2017-04-28T05:28:52.834Z,-7.47
2017-04-28T05:29:52.784Z,-7.53
2017-04-28T05:30:52.757Z,-7.64
2017-04-28T05:31:52.738Z,-7.71
2017-04-28T05:32:52.716Z,-7.74
2017-04-28T05:33:52.688Z,-7.68
2017-04-28T05:34:52.665Z,-7.67
2017-04-28T05:35:52.638Z,-7.64
2017-04-28T05:36:52.618Z,-7.77
2017-04-28T05:37:52.596Z,-7.73
2017-04-28T05:38:52.569Z,-7.73
2017-04-28T05:39:52.547Z,-7.64
2017-04-28T05:40:52.523Z,-7.6
2017-04-28T05:41:52.497Z,-7.57
2017-04-28T05:42:52.478Z,-7.45
2017-04-28T05:43:52.450Z,-7.45
2017-04-28T05:44:52.425Z,-7.49
2017-04-28T05:45:52.400Z,-7.62
2017-04-28T05:46:52.376Z,-7.71
2017-04-28T05:47:52.354Z,-7.89
2017-04-28T05:48:52.329Z,-7.84
2017-04-28T05:49:52.309Z,-7.68
2017-04-28T05:50:52.277Z,-7.47
2017-04-28T05:51:52.257Z,-7.39
2017-04-28T05:52:52.238Z,-7.35
2017-04-28T05:53:52.213Z,-7.46
2017-04-28T05:54:52.189Z,-7.35
2017-04-28T05:55:52.159Z,-7.29
2017-04-28T05:56:52.140Z,-7.27
2017-04-28T05:57:52.121Z,-7.16
2017-04-28T05:58:52.093Z,-6.99
2017-04-28T05:59:52.068Z,-6.85
2017-04-28T06:00:52.042Z,-6.74
2017-04-28T06:01:52.022Z,-6.52
2017-04-28T06:02:51.997Z,-6.29
2017-04-28T06:03:51.973Z,-6.02
2017-04-28T06:04:51.948Z,-5.91
2017-04-28T06:05:51.930Z,-5.67
2017-04-28T06:06:51.910Z,-5.7
2017-04-28T06:07:51.884Z,-5.38
2017-04-28T06:08:51.856Z,-5.62
2017-04-28T06:09:51.849Z,-6
2017-04-28T06:10:51.824Z,-6.09
2017-04-28T06:11:51.796Z,-6.06
2017-04-28T06:12:51.776Z,-6.27
2017-04-28T06:13:51.749Z,-6.34
2017-04-28T06:14:51.728Z,-6.38
2017-04-28T06:15:51.705Z,-6.5
2017-04-28T06:16:51.682Z,-6.66
2017-04-28T06:17:51.659Z,-6.59
2017-04-28T06:18:51.638Z,-6.67
2017-04-28T06:19:51.615Z,-6.41
2017-04-28T06:20:51.589Z,-6.2
2017-04-28T06:21:51.568Z,-5.96
2017-04-28T06:22:51.576Z,-5.8
2017-04-28T06:23:51.529Z,-5.92
2017-04-28T06:24:51.501Z,-6.08
2017-04-28T06:25:51.485Z,-6.27
2017-04-28T06:26:51.455Z,-6.03
2017-04-28T06:27:51.437Z,-5.96
2017-04-28T06:28:51.417Z,-5.87
2017-04-28T06:29:51.391Z,-5.84
2017-04-28T06:30:51.369Z,-5.84
2017-04-28T06:31:51.048Z,-5.92
2017-04-28T06:32:51.329Z,-6.1
2017-04-28T06:33:51.307Z,-6.24
2017-04-28T06:34:51.281Z,-6.23
2017-04-28T06:35:51.258Z,-6.26
2017-04-28T06:36:51.232Z,-6.29
2017-04-28T06:37:51.214Z,-6.08
2017-04-28T06:38:50.888Z,-6.17
2017-04-28T06:39:51.165Z,-6.09
2017-04-28T06:40:51.144Z,-6.02
2017-04-28T06:41:51.138Z,-6.14
2017-04-28T06:42:51.114Z,-6.32
2017-04-28T06:43:51.080Z,-6.35
2017-04-28T06:44:51.059Z,-6.35
2017-04-28T06:45:50.733Z,-6.31
2017-04-28T06:46:51.015Z,-6.27
2017-04-28T06:47:50.988Z,-6.24
2017-04-28T06:48:50.968Z,-6.35
2017-04-28T06:49:50.647Z,-6.35
2017-04-28T06:50:50.920Z,-6.19
2017-04-28T06:51:50.895Z,-6.13
2017-04-28T06:52:50.879Z,-6.13
2017-04-28T06:53:50.552Z,-6.26
2017-04-28T06:54:50.828Z,-6.24
2017-04-28T06:55:50.807Z,-6.48
2017-04-28T06:56:50.787Z,-6.52
2017-04-28T06:57:50.777Z,-6.6
2017-04-28T06:58:50.739Z,-6.59
2017-04-28T06:59:50.714Z,-6.53
2017-04-28T07:00:50.692Z,-6.44
2017-04-28T07:01:50.675Z,-6.27
2017-04-28T07:02:50.651Z,-6.2
2017-04-28T07:03:50.325Z,-6
2017-04-28T07:04:50.607Z,-5.77
2017-04-28T07:05:50.584Z,-5.7
2017-04-28T07:06:50.562Z,-5.48
2017-04-28T07:07:50.539Z,-5.38
2017-04-28T07:08:50.516Z,-5.64
2017-04-28T07:09:50.504Z,-5.9
2017-04-28T07:10:50.477Z,-5.98
2017-04-28T07:11:50.448Z,-6.24
2017-04-28T07:12:50.429Z,-6.31
2017-04-28T07:13:50.419Z,-6.2
2017-04-28T07:14:50.393Z,-6.02
2017-04-28T07:15:50.360Z,-5.81
2017-04-28T07:16:50.337Z,-5.48
2017-04-28T07:17:50.314Z,-5.05
2017-04-28T07:18:50.294Z,-4.76
2017-04-28T07:19:50.275Z,-4.4
2017-04-28T07:20:50.253Z,-4.26
2017-04-28T07:21:50.229Z,-3.95
2017-04-28T07:22:50.211Z,-3.98
2017-04-28T07:23:50.186Z,-3.77
2017-04-28T07:24:50.168Z,-3.69
2017-04-28T07:25:50.144Z,-3.79
2017-04-28T07:26:50.133Z,-3.98
2017-04-28T07:27:50.103Z,-4.27
2017-04-28T07:28:50.084Z,-4.62
2017-04-28T07:29:50.067Z,-5.08
2017-04-28T07:30:50.044Z,-5.25
2017-04-28T07:31:50.026Z,-5.28
2017-04-28T07:32:50.003Z,-5.24
2017-04-28T07:33:49.982Z,-4.93
2017-04-28T07:34:49.955Z,-4.65
2017-04-28T07:35:49.942Z,-4.59
2017-04-28T07:36:49.918Z,-5.09
2017-04-28T07:37:49.598Z,-5.2
2017-04-28T07:38:49.876Z,-5.34
2017-04-28T07:39:49.858Z,-5.59
2017-04-28T07:40:49.839Z,-5.81
2017-04-28T07:41:49.816Z,-6
2017-04-28T07:42:49.832Z,-6.09
2017-04-28T07:43:49.812Z,-6
2017-04-28T07:44:49.752Z,-5.87
2017-04-28T07:45:49.729Z,-5.73
2017-04-28T07:46:49.741Z,-5.84
2017-04-28T07:47:49.692Z,-5.66
2017-04-28T07:48:49.670Z,-5.63
2017-04-28T07:49:49.647Z,-5.91
2017-04-28T07:50:49.628Z,-5.98
2017-04-28T07:51:49.605Z,-5.91
2017-04-28T07:52:49.584Z,-5.81
2017-04-28T07:53:49.268Z,-5.34
2017-04-28T07:54:49.542Z,-5.11
2017-04-28T07:55:49.519Z,-4.88
2017-04-28T07:56:49.496Z,-4.7
2017-04-28T07:57:49.474Z,-5.48
2017-04-28T07:58:49.454Z,-6.48
2017-04-28T07:59:49.434Z,-7.11
2017-04-28T08:00:49.410Z,-6.98
2017-04-28T08:01:49.393Z,-6.67
2017-04-28T08:02:49.369Z,-6.61
2017-04-28T08:03:49.350Z,-6.17
2017-04-28T08:04:49.326Z,-5.9
2017-04-28T08:05:49.340Z,-5.7
2017-04-28T08:06:49.286Z,-5.48
2017-04-28T08:07:48.968Z,-5.03
2017-04-28T08:08:49.248Z,-4.65
2017-04-28T08:09:49.227Z,-4.34
2017-04-28T08:10:49.207Z,-4.67
2017-04-28T08:11:49.195Z,-4.63
2017-04-28T08:12:49.164Z,-4.34
2017-04-28T08:13:49.147Z,-4.13
2017-04-28T08:14:49.127Z,-4.56
2017-04-28T08:15:49.109Z,-5.13
2017-04-28T08:16:49.087Z,-5.48
2017-04-28T08:17:48.764Z,-5.24
2017-04-28T08:18:48.743Z,-5.34
2017-04-28T08:19:49.027Z,-5.8
2017-04-28T08:20:49.011Z,-6.08
2017-04-28T08:21:48.986Z,-6.19
2017-04-28T08:22:48.970Z,-6.14
2017-04-28T08:23:48.943Z,-6.1
2017-04-28T08:24:48.925Z,-5.99
2017-04-28T08:25:48.904Z,-5.81
2017-04-28T08:26:48.887Z,-5.55
2017-04-28T08:27:48.865Z,-5.09
2017-04-28T08:28:48.840Z,-4.58
2017-04-28T08:29:48.817Z,-4.34
2017-04-28T08:30:48.801Z,-4.56
2017-04-28T08:31:48.777Z,-4.45
2017-04-28T08:32:48.758Z,-4.3
2017-04-28T08:33:48.771Z,-4.65
2017-04-28T08:34:48.715Z,-4.44
2017-04-28T08:35:48.713Z,-4.54
2017-04-28T08:36:48.680Z,-4.58
2017-04-28T08:37:48.659Z,-4.76
2017-04-28T08:38:48.637Z,-4.72
2017-04-28T08:39:48.620Z,-4.67
2017-04-28T08:40:48.602Z,-4.55
2017-04-28T08:41:48.612Z,-4.58
2017-04-28T08:42:48.561Z,-4.41
2017-04-28T08:43:48.539Z,-4.3
2017-04-28T08:44:48.521Z,-3.98
2017-04-28T08:45:48.498Z,-3.58
2017-04-28T08:46:48.479Z,-3.25
2017-04-28T08:47:48.457Z,-3.13
2017-04-28T08:48:48.440Z,-3.04
2017-04-28T08:49:48.421Z,-3.1
2017-04-28T08:50:48.403Z,-3.12
2017-04-28T08:51:48.379Z,-3.1
2017-04-28T08:52:48.364Z,-3.08
2017-04-28T08:53:48.345Z,-3.15
2017-04-28T08:54:48.324Z,-3.26
2017-04-28T08:55:48.312Z,-3.31
2017-04-28T08:56:48.286Z,-3.21
2017-04-28T08:57:48.264Z,-3.15
2017-04-28T08:58:48.249Z,-2.87
2017-04-28T08:59:48.230Z,-2.77
2017-04-28T09:00:48.205Z,-2.86
2017-04-28T09:01:48.190Z,-2.76
2017-04-28T09:02:48.203Z,-2.69
2017-04-28T09:03:48.152Z,-2.53
2017-04-28T09:04:48.129Z,-2.33
2017-04-28T09:05:48.113Z,-2.5
2017-04-28T09:06:48.092Z,-2.68
2017-04-28T09:07:48.075Z,-2.62
2017-04-28T09:08:48.089Z,-2.68
2017-04-28T09:09:48.035Z,-2.71
2017-04-28T09:10:48.024Z,-2.82
2017-04-28T09:11:48.001Z,-2.68
2017-04-28T09:12:47.986Z,-2.43
2017-04-28T09:13:47.965Z,-2.43
2017-04-28T09:14:47.944Z,-2.32
2017-04-28T09:15:47.928Z,-2.32
2017-04-28T09:16:47.906Z,-2.14
2017-04-28T09:17:47.885Z,-2.38
2017-04-28T09:18:47.871Z,-2.28
2017-04-28T09:19:47.845Z,-2.38
2017-04-28T09:20:47.827Z,-2.38
2017-04-28T09:21:47.817Z,-2.61
2017-04-28T09:22:47.790Z,-2.86
2017-04-28T09:23:47.774Z,-3
2017-04-28T09:24:47.754Z,-3.13
2017-04-28T09:25:47.739Z,-3.16
2017-04-28T09:26:47.715Z,-3.16
2017-04-28T09:27:47.396Z,-2.86
2017-04-28T09:28:47.683Z,-3.28
2017-04-28T09:29:47.357Z,-4.12
2017-04-28T09:30:47.638Z,-4.59
2017-04-28T09:31:47.624Z,-5.13
2017-04-28T09:32:47.604Z,-5.12
2017-04-28T09:33:47.280Z,-4.88
2017-04-28T09:34:47.564Z,-4.37
2017-04-28T09:35:47.544Z,-4.17
2017-04-28T09:36:47.229Z,-4.77
2017-04-28T09:37:47.506Z,-5.63
2017-04-28T09:38:47.488Z,-5.87
2017-04-28T09:39:47.469Z,-5.48
2017-04-28T09:40:47.148Z,-4.85
2017-04-28T09:41:47.164Z,-4.46
2017-04-28T09:42:47.411Z,-4.09
2017-04-28T09:43:47.403Z,-3.92
2017-04-28T09:44:47.077Z,-3.65
2017-04-28T09:45:47.356Z,-3.58
2017-04-28T09:46:47.333Z,-3.44
2017-04-28T09:47:47.316Z,-3.99
2017-04-28T09:48:47.295Z,-4.07
2017-04-28T09:49:47.281Z,-4.1
2017-04-28T09:50:47.263Z,-3.69
2017-04-28T09:51:47.239Z,-3.37
2017-04-28T09:52:47.225Z,-3.61
2017-04-28T09:53:47.203Z,-4.17
2017-04-28T09:54:47.184Z,-4.07
2017-04-28T09:55:47.166Z,-3.79
2017-04-28T09:56:47.143Z,-3.57
2017-04-28T09:57:47.127Z,-3.22
2017-04-28T09:58:47.111Z,-3.22
2017-04-28T09:59:47.092Z,-3.31
2017-04-28T10:00:47.069Z,-3.28
2017-04-28T10:01:47.054Z,-3.31
2017-04-28T10:02:47.028Z,-2.98
2017-04-28T10:03:47.009Z,-2.76
2017-04-28T10:04:47.032Z,-2.58
2017-04-28T10:05:46.974Z,-2.66
2017-04-28T10:06:46.958Z,-3.58
2017-04-28T10:07:46.637Z,-4.01
2017-04-28T10:08:46.920Z,-4.74
2017-04-28T10:09:46.899Z,-5.52
2017-04-28T10:10:46.884Z,-5.99
2017-04-28T10:11:46.864Z,-5.81
2017-04-28T10:12:46.840Z,-5.28
2017-04-28T10:13:46.818Z,-4.73
2017-04-28T10:14:46.803Z,-4.1
2017-04-28T10:15:46.793Z,-3.52
2017-04-28T10:16:46.467Z,-3.15
2017-04-28T10:17:46.750Z,-2.76
2017-04-28T10:18:46.731Z,-3.15
2017-04-28T10:19:46.711Z,-3.34
2017-04-28T10:20:46.694Z,-3.55
2017-04-28T10:21:46.676Z,-3.59
2017-04-28T10:22:46.655Z,-3.62
2017-04-28T10:23:46.639Z,-3.49
2017-04-28T10:24:46.624Z,-3.23
2017-04-28T10:25:46.605Z,-2.97
2017-04-28T10:26:46.285Z,-2.87
2017-04-28T10:27:46.564Z,-2.76
2017-04-28T10:28:46.250Z,-2.8
2017-04-28T10:29:46.226Z,-2.56
2017-04-28T10:30:46.234Z,-2.65
2017-04-28T10:31:46.193Z,-2.71
2017-04-28T10:32:46.485Z,-2.61
2017-04-28T10:33:46.462Z,-2.71
2017-04-28T10:34:46.445Z,-2.72
2017-04-28T10:35:46.425Z,-2.84
2017-04-28T10:36:46.407Z,-2.72
2017-04-28T10:37:46.392Z,-2.24
2017-04-28T10:38:46.377Z,-1.75
2017-04-28T10:39:46.369Z,-1.31
2017-04-28T10:40:46.340Z,-1.14
2017-04-28T10:41:46.331Z,-0.89
2017-04-28T10:42:46.305Z,-0.81
2017-04-28T10:43:46.293Z,-0.76
2017-04-28T10:44:46.274Z,-0.53
2017-04-28T10:45:46.259Z,-0.42
2017-04-28T10:46:46.242Z,-0.13
2017-04-28T10:47:46.229Z,0.04
2017-04-28T10:48:46.209Z,0.1
2017-04-28T10:49:46.193Z,0.02
2017-04-28T10:50:46.175Z,-0.02
2017-04-28T10:51:46.159Z,-0.13
2017-04-28T10:52:46.142Z,-0.37
2017-04-28T10:53:46.127Z,-0.14
2017-04-28T10:54:45.840Z,-0.13
2017-04-28T10:55:46.094Z,-0.03
2017-04-28T10:56:46.089Z,-0.05
2017-04-28T10:57:46.064Z,0.01
2017-04-28T10:58:46.051Z,0.13
2017-04-28T10:59:46.031Z,0.25
2017-04-28T11:00:46.015Z,0.17
2017-04-28T11:01:45.999Z,0.28
2017-04-28T11:02:45.981Z,0.37
2017-04-28T11:03:45.969Z,0.51
2017-04-28T11:04:45.947Z,0.62
2017-04-28T11:05:45.934Z,0.67
2017-04-28T11:06:45.921Z,0.38
2017-04-28T11:07:45.905Z,0.3
2017-04-28T11:08:45.886Z,0.16
2017-04-28T11:09:45.870Z,0.13
2017-04-28T11:10:45.553Z,0.15
2017-04-28T11:11:45.839Z,-0.08
2017-04-28T11:12:45.816Z,-0.24
2017-04-28T11:13:45.802Z,-0.27
2017-04-28T11:14:45.792Z,-0.17
2017-04-28T11:15:45.471Z,-0.03
2017-04-28T11:16:45.758Z,-0.06
2017-04-28T11:17:45.739Z,-0.01
2017-04-28T11:18:45.725Z,-0.14
2017-04-28T11:19:45.707Z,-0.08
2017-04-28T11:20:45.693Z,-0.14
2017-04-28T11:21:45.677Z,-0.03
2017-04-28T11:22:45.665Z,-0.05
2017-04-28T11:23:45.640Z,0.13
2017-04-28T11:24:45.628Z,0.22
2017-04-28T11:25:45.616Z,0.28
2017-04-28T11:26:45.592Z,0.3
2017-04-28T11:27:45.281Z,0.17
2017-04-28T11:28:45.262Z,0.22
2017-04-28T11:29:45.550Z,0.08
2017-04-28T11:30:45.533Z,0.05
2017-04-28T11:31:45.521Z,-0.08
2017-04-28T11:32:45.198Z,-0.14
2017-04-28T11:33:45.483Z,-0.12
2017-04-28T11:34:45.166Z,-0.2
2017-04-28T11:35:45.150Z,-0.12
2017-04-28T11:36:45.131Z,-0.03
2017-04-28T11:37:45.419Z,0.13
2017-04-28T11:38:45.100Z,0.15
2017-04-28T11:39:45.083Z,0.37
2017-04-28T11:40:45.371Z,0.31
2017-04-28T11:41:45.357Z,0.53
2017-04-28T11:42:45.042Z,0.6
2017-04-28T11:43:45.321Z,0.43
2017-04-28T11:44:45.307Z,0.17
2017-04-28T11:45:45.290Z,0.19
2017-04-28T11:46:45.283Z,0.12
2017-04-28T11:47:45.253Z,0.01
2017-04-28T11:48:45.236Z,-0.17
2017-04-28T11:49:45.263Z,-0.38
2017-04-28T11:50:45.212Z,-0.67
2017-04-28T11:51:44.893Z,-0.76
2017-04-28T11:52:44.874Z,-0.86
2017-04-28T11:53:44.857Z,-0.9
2017-04-28T11:54:44.842Z,-1
2017-04-28T11:55:44.853Z,-1.14
2017-04-28T11:56:45.116Z,-1.23
2017-04-28T11:57:45.093Z,-1.15
2017-04-28T11:58:45.077Z,-1.11
2017-04-28T11:59:45.093Z,-0.95
2017-04-28T12:00:45.045Z,-0.71
2017-04-28T12:01:45.024Z,-0.5
2017-04-28T12:02:45.011Z,-0.44
2017-04-28T12:03:44.998Z,-0.45
2017-04-28T12:04:44.982Z,-0.62
2017-04-28T12:05:44.963Z,-0.89
2017-04-28T12:06:44.947Z,-1.02
2017-04-28T12:07:44.631Z,-1.14
2017-04-28T12:08:44.917Z,-1.36
2017-04-28T12:09:44.899Z,-1.39
2017-04-28T12:10:44.883Z,-1.62
2017-04-28T12:11:44.874Z,-1.68
2017-04-28T12:12:44.857Z,-1.77
2017-04-28T12:13:44.837Z,-1.77
2017-04-28T12:14:44.817Z,-1.7
2017-04-28T12:15:44.800Z,-1.44
2017-04-28T12:16:44.781Z,-1.38
2017-04-28T12:17:44.770Z,-1.62
2017-04-28T12:18:44.749Z,-1.68
2017-04-28T12:19:44.737Z,-1.59
2017-04-28T12:20:44.720Z,-1.53
2017-04-28T12:21:44.399Z,-1.71
2017-04-28T12:22:44.386Z,-1.5
2017-04-28T12:23:44.676Z,-1.38
2017-04-28T12:24:44.685Z,-1.28
2017-04-28T12:25:44.632Z,-1.21
2017-04-28T12:26:44.627Z,-1.18
2017-04-28T12:27:44.602Z,-1.35
2017-04-28T12:28:44.588Z,-1.64
2017-04-28T12:29:44.568Z,-1.9
2017-04-28T12:30:44.251Z,-2.18
2017-04-28T12:31:44.536Z,-2.35
2017-04-28T12:32:44.516Z,-2.59
2017-04-28T12:33:44.205Z,-2.83
2017-04-28T12:34:44.489Z,-3.15
2017-04-28T12:35:44.476Z,-3.15
2017-04-28T12:36:44.449Z,-3.1
2017-04-28T12:37:44.436Z,-3.08
2017-04-28T12:38:44.417Z,-2.72
2017-04-28T12:39:44.398Z,-2.65
2017-04-28T12:40:44.383Z,-2.29
2017-04-28T12:41:44.365Z,-2.14
2017-04-28T12:42:44.348Z,-1.92
2017-04-28T12:43:44.326Z,-1.68
2017-04-28T12:44:44.317Z,-1.51
2017-04-28T12:45:44.296Z,-1.36
2017-04-28T12:46:43.974Z,-1.28
2017-04-28T12:47:44.267Z,-1.1
2017-04-28T12:48:43.939Z,-1.08
2017-04-28T12:49:44.227Z,-1.15
2017-04-28T12:50:44.208Z,-1.18
2017-04-28T12:51:44.192Z,-1.17
2017-04-28T12:52:44.178Z,-1.21
2017-04-28T12:53:44.155Z,-1.32
2017-04-28T12:54:44.146Z,-1.38
2017-04-28T12:55:44.126Z,-1.65